sensor_id;sensor_type;location;lat;lon;timestamp;temperature;humidity
35325;DHT22;35135;47.510;19.036;2023-03-19T00:01:53;21.60;47.20
35325;DHT22;35135;47.510;19.036;2023-03-19T00:04:19;21.60;47.10
35325;DHT22;35135;47.510;19.036;2023-03-19T00:06:45;21.60;47.30
35325;DHT22;35135;47.510;19.036;2023-03-19T00:09:11;21.60;47.80
35325;DHT22;35135;47.510;19.036;2023-03-19T00:11:37;21.50;47.30
35325;DHT22;35135;47.510;19.036;2023-03-19T00:14:03;21.50;47.10
35325;DHT22;35135;47.510;19.036;2023-03-19T00:16:28;21.50;47.10
35325;DHT22;35135;47.510;19.036;2023-03-19T00:18:54;21.50;47.20
35325;DHT22;35135;47.510;19.036;2023-03-19T00:21:20;21.50;47.10
35325;DHT22;35135;47.510;19.036;2023-03-19T00:23:46;21.50;47.30
35325;DHT22;35135;47.510;19.036;2023-03-19T00:26:12;21.50;47.20
35325;DHT22;35135;47.510;19.036;2023-03-19T00:28:37;21.50;47.20
35325;DHT22;35135;47.510;19.036;2023-03-19T00:31:14;21.50;47.30
35325;DHT22;35135;47.510;19.036;2023-03-19T00:33:41;21.50;47.10
35325;DHT22;35135;47.510;19.036;2023-03-19T00:36:08;21.50;47.20
35325;DHT22;35135;47.510;19.036;2023-03-19T00:38:35;21.50;47.10
35325;DHT22;35135;47.510;19.036;2023-03-19T00:41:02;21.50;47.10
35325;DHT22;35135;47.510;19.036;2023-03-19T00:43:28;21.50;47.10
35325;DHT22;35135;47.510;19.036;2023-03-19T00:45:54;21.50;47.10
35325;DHT22;35135;47.510;19.036;2023-03-19T00:48:20;21.50;47.10
35325;DHT22;35135;47.510;19.036;2023-03-19T00:50:47;21.50;47.00
35325;DHT22;35135;47.510;19.036;2023-03-19T00:53:12;21.50;47.10
35325;DHT22;35135;47.510;19.036;2023-03-19T00:55:38;21.50;47.00
35325;DHT22;35135;47.510;19.036;2023-03-19T00:58:04;21.50;47.00
35325;DHT22;35135;47.510;19.036;2023-03-19T01:00:32;21.40;46.90
35325;DHT22;35135;47.510;19.036;2023-03-19T01:02:58;21.40;46.90
35325;DHT22;35135;47.510;19.036;2023-03-19T01:05:25;21.50;46.90
35325;DHT22;35135;47.510;19.036;2023-03-19T01:07:51;21.40;46.90
35325;DHT22;35135;47.510;19.036;2023-03-19T01:10:18;21.40;46.90
35325;DHT22;35135;47.510;19.036;2023-03-19T01:12:45;21.40;46.90
35325;DHT22;35135;47.510;19.036;2023-03-19T01:15:11;21.40;46.80
35325;DHT22;35135;47.510;19.036;2023-03-19T01:17:36;21.40;46.80
35325;DHT22;35135;47.510;19.036;2023-03-19T01:20:03;21.40;46.90
35325;DHT22;35135;47.510;19.036;2023-03-19T01:22:35;21.40;46.80
35325;DHT22;35135;47.510;19.036;2023-03-19T01:25:02;21.40;46.90
35325;DHT22;35135;47.510;19.036;2023-03-19T01:27:28;21.40;46.80
35325;DHT22;35135;47.510;19.036;2023-03-19T01:29:53;21.40;46.80
35325;DHT22;35135;47.510;19.036;2023-03-19T01:32:19;21.40;46.80
35325;DHT22;35135;47.510;19.036;2023-03-19T01:34:45;21.40;46.80
35325;DHT22;35135;47.510;19.036;2023-03-19T01:37:11;21.40;46.80
35325;DHT22;35135;47.510;19.036;2023-03-19T01:39:37;21.40;46.80
35325;DHT22;35135;47.510;19.036;2023-03-19T01:42:03;21.40;46.70
35325;DHT22;35135;47.510;19.036;2023-03-19T01:44:35;21.40;46.70
35325;DHT22;35135;47.510;19.036;2023-03-19T01:47:06;21.40;46.70
35325;DHT22;35135;47.510;19.036;2023-03-19T01:49:32;21.30;46.70
35325;DHT22;35135;47.510;19.036;2023-03-19T01:52:00;21.30;46.70
35325;DHT22;35135;47.510;19.036;2023-03-19T01:54:29;21.30;46.80
35325;DHT22;35135;47.510;19.036;2023-03-19T01:57:02;21.30;46.70
35325;DHT22;35135;47.510;19.036;2023-03-19T01:59:35;21.30;46.80
35325;DHT22;35135;47.510;19.036;2023-03-19T02:02:07;21.30;46.70
35325;DHT22;35135;47.510;19.036;2023-03-19T02:04:34;21.30;46.70
35325;DHT22;35135;47.510;19.036;2023-03-19T02:07:01;21.30;46.80
35325;DHT22;35135;47.510;19.036;2023-03-19T02:09:28;21.30;46.70
35325;DHT22;35135;47.510;19.036;2023-03-19T02:11:54;21.30;46.80
35325;DHT22;35135;47.510;19.036;2023-03-19T02:14:21;21.30;46.70
35325;DHT22;35135;47.510;19.036;2023-03-19T02:16:47;21.30;46.80
35325;DHT22;35135;47.510;19.036;2023-03-19T02:19:17;21.30;46.60
35325;DHT22;35135;47.510;19.036;2023-03-19T02:21:43;21.30;46.60
35325;DHT22;35135;47.510;19.036;2023-03-19T02:24:25;21.30;46.60
35325;DHT22;35135;47.510;19.036;2023-03-19T02:26:53;21.30;46.60
35325;DHT22;35135;47.510;19.036;2023-03-19T02:29:19;21.30;46.60
35325;DHT22;35135;47.510;19.036;2023-03-19T02:31:45;21.30;46.60
35325;DHT22;35135;47.510;19.036;2023-03-19T02:34:36;21.30;46.70
35325;DHT22;35135;47.510;19.036;2023-03-19T02:37:23;21.30;46.70
35325;DHT22;35135;47.510;19.036;2023-03-19T02:40:13;21.30;46.60
35325;DHT22;35135;47.510;19.036;2023-03-19T02:42:39;21.30;46.70
35325;DHT22;35135;47.510;19.036;2023-03-19T02:45:05;21.20;46.60
35325;DHT22;35135;47.510;19.036;2023-03-19T02:47:31;21.30;46.70
35325;DHT22;35135;47.510;19.036;2023-03-19T02:49:57;21.30;46.70
35325;DHT22;35135;47.510;19.036;2023-03-19T02:52:23;21.30;46.70
35325;DHT22;35135;47.510;19.036;2023-03-19T02:54:48;21.30;47.30
35325;DHT22;35135;47.510;19.036;2023-03-19T02:57:14;21.20;46.60
35325;DHT22;35135;47.510;19.036;2023-03-19T02:59:40;21.20;46.60
35325;DHT22;35135;47.510;19.036;2023-03-19T03:02:06;21.20;46.60
35325;DHT22;35135;47.510;19.036;2023-03-19T03:04:33;21.30;46.60
35325;DHT22;35135;47.510;19.036;2023-03-19T03:06:59;21.20;46.50
35325;DHT22;35135;47.510;19.036;2023-03-19T03:09:26;21.20;46.70
35325;DHT22;35135;47.510;19.036;2023-03-19T03:11:52;21.20;46.70
35325;DHT22;35135;47.510;19.036;2023-03-19T03:14:17;21.20;46.70
35325;DHT22;35135;47.510;19.036;2023-03-19T03:16:43;21.20;46.70
35325;DHT22;35135;47.510;19.036;2023-03-19T03:19:09;21.20;46.60
35325;DHT22;35135;47.510;19.036;2023-03-19T03:21:36;21.20;46.60
35325;DHT22;35135;47.510;19.036;2023-03-19T03:24:01;21.20;46.60
35325;DHT22;35135;47.510;19.036;2023-03-19T03:26:27;21.20;46.60
35325;DHT22;35135;47.510;19.036;2023-03-19T03:28:53;21.20;46.70
35325;DHT22;35135;47.510;19.036;2023-03-19T03:31:19;21.20;46.60
35325;DHT22;35135;47.510;19.036;2023-03-19T03:33:45;21.20;46.70
35325;DHT22;35135;47.510;19.036;2023-03-19T03:36:11;21.10;46.60
35325;DHT22;35135;47.510;19.036;2023-03-19T03:38:37;21.20;46.60
35325;DHT22;35135;47.510;19.036;2023-03-19T03:41:04;21.20;46.60
35325;DHT22;35135;47.510;19.036;2023-03-19T03:43:30;21.20;46.60
35325;DHT22;35135;47.510;19.036;2023-03-19T03:45:56;21.10;46.50
35325;DHT22;35135;47.510;19.036;2023-03-19T03:48:21;21.10;46.50
35325;DHT22;35135;47.510;19.036;2023-03-19T03:50:47;21.10;46.50
35325;DHT22;35135;47.510;19.036;2023-03-19T03:53:13;21.10;46.50
35325;DHT22;35135;47.510;19.036;2023-03-19T03:55:40;21.10;46.50
35325;DHT22;35135;47.510;19.036;2023-03-19T03:58:05;21.20;46.50
35325;DHT22;35135;47.510;19.036;2023-03-19T04:00:31;21.10;46.50
35325;DHT22;35135;47.510;19.036;2023-03-19T04:02:57;21.10;46.50
35325;DHT22;35135;47.510;19.036;2023-03-19T04:05:24;21.10;46.40
35325;DHT22;35135;47.510;19.036;2023-03-19T04:07:50;21.10;46.40
35325;DHT22;35135;47.510;19.036;2023-03-19T04:10:16;21.10;46.40
35325;DHT22;35135;47.510;19.036;2023-03-19T04:12:42;21.10;46.40
35325;DHT22;35135;47.510;19.036;2023-03-19T04:15:11;21.10;46.40
35325;DHT22;35135;47.510;19.036;2023-03-19T04:17:37;21.10;46.40
35325;DHT22;35135;47.510;19.036;2023-03-19T04:20:04;21.10;46.40
35325;DHT22;35135;47.510;19.036;2023-03-19T04:22:30;21.00;46.20
35325;DHT22;35135;47.510;19.036;2023-03-19T04:24:56;21.00;46.20
35325;DHT22;35135;47.510;19.036;2023-03-19T04:27:22;21.00;46.20
35325;DHT22;35135;47.510;19.036;2023-03-19T04:29:48;21.00;46.20
35325;DHT22;35135;47.510;19.036;2023-03-19T04:32:14;21.00;46.30
35325;DHT22;35135;47.510;19.036;2023-03-19T04:34:39;21.00;46.20
35325;DHT22;35135;47.510;19.036;2023-03-19T04:37:06;21.00;46.20
35325;DHT22;35135;47.510;19.036;2023-03-19T04:39:35;21.00;46.20
35325;DHT22;35135;47.510;19.036;2023-03-19T04:42:01;21.00;46.20
35325;DHT22;35135;47.510;19.036;2023-03-19T04:44:27;21.00;46.20
35325;DHT22;35135;47.510;19.036;2023-03-19T04:46:53;21.00;46.20
35325;DHT22;35135;47.510;19.036;2023-03-19T04:49:19;21.00;46.30
35325;DHT22;35135;47.510;19.036;2023-03-19T04:51:45;21.00;46.20
35325;DHT22;35135;47.510;19.036;2023-03-19T04:54:10;21.00;46.20
35325;DHT22;35135;47.510;19.036;2023-03-19T04:56:36;21.00;46.20
35325;DHT22;35135;47.510;19.036;2023-03-19T04:59:02;21.00;46.30
35325;DHT22;35135;47.510;19.036;2023-03-19T05:01:28;21.00;46.20
35325;DHT22;35135;47.510;19.036;2023-03-19T05:03:53;21.00;46.20
35325;DHT22;35135;47.510;19.036;2023-03-19T05:06:20;21.00;46.20
35325;DHT22;35135;47.510;19.036;2023-03-19T05:08:46;21.00;46.30
35325;DHT22;35135;47.510;19.036;2023-03-19T05:11:13;21.00;46.20
35325;DHT22;35135;47.510;19.036;2023-03-19T05:13:39;21.00;46.20
35325;DHT22;35135;47.510;19.036;2023-03-19T05:16:05;21.10;46.30
35325;DHT22;35135;47.510;19.036;2023-03-19T05:18:31;21.20;46.30
35325;DHT22;35135;47.510;19.036;2023-03-19T05:20:58;21.30;46.10
35325;DHT22;35135;47.510;19.036;2023-03-19T05:23:24;21.40;45.80
35325;DHT22;35135;47.510;19.036;2023-03-19T05:25:50;21.60;45.60
35325;DHT22;35135;47.510;19.036;2023-03-19T05:28:16;21.70;45.30
35325;DHT22;35135;47.510;19.036;2023-03-19T05:30:42;21.90;45.10
35325;DHT22;35135;47.510;19.036;2023-03-19T05:33:08;22.00;44.80
35325;DHT22;35135;47.510;19.036;2023-03-19T05:35:34;22.20;44.60
35325;DHT22;35135;47.510;19.036;2023-03-19T05:38:01;22.30;44.20
35325;DHT22;35135;47.510;19.036;2023-03-19T05:40:27;22.40;44.00
35325;DHT22;35135;47.510;19.036;2023-03-19T05:42:53;22.40;43.80
35325;DHT22;35135;47.510;19.036;2023-03-19T05:45:19;22.50;43.80
35325;DHT22;35135;47.510;19.036;2023-03-19T05:47:48;22.50;43.50
35325;DHT22;35135;47.510;19.036;2023-03-19T05:50:18;22.50;43.50
35325;DHT22;35135;47.510;19.036;2023-03-19T05:52:44;22.50;43.60
35325;DHT22;35135;47.510;19.036;2023-03-19T05:55:10;22.60;43.50
35325;DHT22;35135;47.510;19.036;2023-03-19T05:57:36;22.60;43.50
35325;DHT22;35135;47.510;19.036;2023-03-19T06:00:04;22.70;43.20
35325;DHT22;35135;47.510;19.036;2023-03-19T06:02:31;22.70;43.10
35325;DHT22;35135;47.510;19.036;2023-03-19T06:04:57;22.80;43.00
35325;DHT22;35135;47.510;19.036;2023-03-19T06:07:23;22.90;43.00
35325;DHT22;35135;47.510;19.036;2023-03-19T06:09:48;22.90;42.80
35325;DHT22;35135;47.510;19.036;2023-03-19T06:12:14;22.90;42.60
35325;DHT22;35135;47.510;19.036;2023-03-19T06:14:40;23.00;42.70
35325;DHT22;35135;47.510;19.036;2023-03-19T06:17:06;23.00;42.40
35325;DHT22;35135;47.510;19.036;2023-03-19T06:19:32;23.00;42.60
35325;DHT22;35135;47.510;19.036;2023-03-19T06:21:58;23.00;42.40
35325;DHT22;35135;47.510;19.036;2023-03-19T06:24:24;23.00;43.00
35325;DHT22;35135;47.510;19.036;2023-03-19T06:26:49;23.00;42.50
35325;DHT22;35135;47.510;19.036;2023-03-19T06:29:15;23.00;42.40
35325;DHT22;35135;47.510;19.036;2023-03-19T06:31:41;23.00;42.30
35325;DHT22;35135;47.510;19.036;2023-03-19T06:34:07;23.00;42.30
35325;DHT22;35135;47.510;19.036;2023-03-19T06:36:32;23.10;42.50
35325;DHT22;35135;47.510;19.036;2023-03-19T06:38:58;23.00;42.30
35325;DHT22;35135;47.510;19.036;2023-03-19T06:41:24;23.10;42.40
35325;DHT22;35135;47.510;19.036;2023-03-19T06:43:50;23.10;42.30
35325;DHT22;35135;47.510;19.036;2023-03-19T06:46:15;23.10;42.30
35325;DHT22;35135;47.510;19.036;2023-03-19T06:48:41;23.10;42.20
35325;DHT22;35135;47.510;19.036;2023-03-19T06:51:07;23.10;42.40
35325;DHT22;35135;47.510;19.036;2023-03-19T06:53:33;23.10;42.50
35325;DHT22;35135;47.510;19.036;2023-03-19T06:55:58;23.10;42.50
35325;DHT22;35135;47.510;19.036;2023-03-19T06:58:24;23.10;42.50
35325;DHT22;35135;47.510;19.036;2023-03-19T07:00:51;23.10;42.50
35325;DHT22;35135;47.510;19.036;2023-03-19T07:03:17;23.20;42.30
35325;DHT22;35135;47.510;19.036;2023-03-19T07:05:42;23.20;42.40
35325;DHT22;35135;47.510;19.036;2023-03-19T07:08:08;23.20;42.50
35325;DHT22;35135;47.510;19.036;2023-03-19T07:10:39;23.20;42.40
35325;DHT22;35135;47.510;19.036;2023-03-19T07:13:05;23.20;42.40
35325;DHT22;35135;47.510;19.036;2023-03-19T07:15:31;23.20;42.40
35325;DHT22;35135;47.510;19.036;2023-03-19T07:17:57;23.20;42.40
35325;DHT22;35135;47.510;19.036;2023-03-19T07:20:22;23.20;42.50
35325;DHT22;35135;47.510;19.036;2023-03-19T07:22:51;23.20;42.40
35325;DHT22;35135;47.510;19.036;2023-03-19T07:25:17;23.20;42.60
35325;DHT22;35135;47.510;19.036;2023-03-19T07:27:43;23.20;42.30
35325;DHT22;35135;47.510;19.036;2023-03-19T07:30:09;23.20;42.50
35325;DHT22;35135;47.510;19.036;2023-03-19T07:32:36;23.20;42.70
35325;DHT22;35135;47.510;19.036;2023-03-19T07:35:04;23.20;42.60
35325;DHT22;35135;47.510;19.036;2023-03-19T07:37:30;23.20;42.60
35325;DHT22;35135;47.510;19.036;2023-03-19T07:39:56;23.10;42.70
35325;DHT22;35135;47.510;19.036;2023-03-19T07:42:22;23.10;42.60
35325;DHT22;35135;47.510;19.036;2023-03-19T07:44:48;23.10;42.80
35325;DHT22;35135;47.510;19.036;2023-03-19T07:47:13;23.20;42.80
35325;DHT22;35135;47.510;19.036;2023-03-19T07:49:39;23.20;42.70
35325;DHT22;35135;47.510;19.036;2023-03-19T07:52:05;23.20;42.60
35325;DHT22;35135;47.510;19.036;2023-03-19T07:54:31;23.20;42.70
35325;DHT22;35135;47.510;19.036;2023-03-19T07:56:56;23.20;42.70
35325;DHT22;35135;47.510;19.036;2023-03-19T07:59:22;23.20;42.70
35325;DHT22;35135;47.510;19.036;2023-03-19T08:01:48;23.20;42.60
35325;DHT22;35135;47.510;19.036;2023-03-19T08:04:14;23.10;42.50
35325;DHT22;35135;47.510;19.036;2023-03-19T08:06:40;23.10;42.60
35325;DHT22;35135;47.510;19.036;2023-03-19T08:09:05;23.10;42.50
35325;DHT22;35135;47.510;19.036;2023-03-19T08:11:31;23.10;42.50
35325;DHT22;35135;47.510;19.036;2023-03-19T08:13:57;23.10;42.60
35325;DHT22;35135;47.510;19.036;2023-03-19T08:16:22;23.10;42.60
35325;DHT22;35135;47.510;19.036;2023-03-19T08:18:49;23.10;42.70
35325;DHT22;35135;47.510;19.036;2023-03-19T08:21:14;23.00;42.70
35325;DHT22;35135;47.510;19.036;2023-03-19T08:23:40;23.00;42.80
35325;DHT22;35135;47.510;19.036;2023-03-19T08:26:06;23.00;42.70
35325;DHT22;35135;47.510;19.036;2023-03-19T08:28:32;23.00;42.80
35325;DHT22;35135;47.510;19.036;2023-03-19T08:31:08;23.00;42.80
35325;DHT22;35135;47.510;19.036;2023-03-19T08:33:34;23.00;42.90
35325;DHT22;35135;47.510;19.036;2023-03-19T08:36:08;23.00;42.90
35325;DHT22;35135;47.510;19.036;2023-03-19T08:38:34;23.00;42.90
35325;DHT22;35135;47.510;19.036;2023-03-19T08:41:00;23.00;43.00
35325;DHT22;35135;47.510;19.036;2023-03-19T08:43:27;22.90;42.90
35325;DHT22;35135;47.510;19.036;2023-03-19T08:45:52;22.90;42.80
35325;DHT22;35135;47.510;19.036;2023-03-19T08:48:18;22.90;42.80
35325;DHT22;35135;47.510;19.036;2023-03-19T08:50:44;22.90;42.90
35325;DHT22;35135;47.510;19.036;2023-03-19T08:53:09;22.90;42.30
35325;DHT22;35135;47.510;19.036;2023-03-19T08:55:35;22.80;39.00
35325;DHT22;35135;47.510;19.036;2023-03-19T08:58:01;22.70;36.70
35325;DHT22;35135;47.510;19.036;2023-03-19T09:00:27;22.50;37.10
35325;DHT22;35135;47.510;19.036;2023-03-19T09:02:52;22.50;36.50
35325;DHT22;35135;47.510;19.036;2023-03-19T09:05:18;22.40;36.90
35325;DHT22;35135;47.510;19.036;2023-03-19T09:07:47;22.30;38.10
35325;DHT22;35135;47.510;19.036;2023-03-19T09:10:13;22.30;38.20
35325;DHT22;35135;47.510;19.036;2023-03-19T09:12:38;22.30;39.10
35325;DHT22;35135;47.510;19.036;2023-03-19T09:15:05;22.30;39.00
35325;DHT22;35135;47.510;19.036;2023-03-19T09:17:31;22.30;39.60
35325;DHT22;35135;47.510;19.036;2023-03-19T09:19:56;22.30;40.00
35325;DHT22;35135;47.510;19.036;2023-03-19T09:22:22;22.30;39.70
35325;DHT22;35135;47.510;19.036;2023-03-19T09:24:48;22.30;39.70
35325;DHT22;35135;47.510;19.036;2023-03-19T09:27:13;22.30;39.90
35325;DHT22;35135;47.510;19.036;2023-03-19T09:29:39;22.30;39.90
35325;DHT22;35135;47.510;19.036;2023-03-19T09:32:05;22.30;40.30
35325;DHT22;35135;47.510;19.036;2023-03-19T09:34:31;22.20;40.50
35325;DHT22;35135;47.510;19.036;2023-03-19T09:36:57;22.20;40.30
35325;DHT22;35135;47.510;19.036;2023-03-19T09:39:23;22.20;40.70
35325;DHT22;35135;47.510;19.036;2023-03-19T09:44:37;22.20;40.50
35325;DHT22;35135;47.510;19.036;2023-03-19T09:49:51;22.20;40.50
35325;DHT22;35135;47.510;19.036;2023-03-19T09:57:50;22.20;40.70
35325;DHT22;35135;47.510;19.036;2023-03-19T10:00:19;22.20;40.60
35325;DHT22;35135;47.510;19.036;2023-03-19T10:02:53;22.10;40.90
35325;DHT22;35135;47.510;19.036;2023-03-19T10:08:36;22.10;40.90
35325;DHT22;35135;47.510;19.036;2023-03-19T10:11:30;22.10;41.10
35325;DHT22;35135;47.510;19.036;2023-03-19T10:16:46;22.10;41.20
35325;DHT22;35135;47.510;19.036;2023-03-19T10:19:17;22.10;41.20
35325;DHT22;35135;47.510;19.036;2023-03-19T10:21:49;22.10;41.30
35325;DHT22;35135;47.510;19.036;2023-03-19T10:24:32;22.10;41.10
35325;DHT22;35135;47.510;19.036;2023-03-19T10:27:13;22.10;41.40
35325;DHT22;35135;47.510;19.036;2023-03-19T10:29:39;22.10;41.50
35325;DHT22;35135;47.510;19.036;2023-03-19T10:32:17;22.10;41.80
35325;DHT22;35135;47.510;19.036;2023-03-19T10:34:48;22.10;41.30
35325;DHT22;35135;47.510;19.036;2023-03-19T10:37:18;22.10;41.50
35325;DHT22;35135;47.510;19.036;2023-03-19T10:39:48;22.10;41.60
35325;DHT22;35135;47.510;19.036;2023-03-19T10:47:45;22.10;41.60
35325;DHT22;35135;47.510;19.036;2023-03-19T10:50:19;22.10;41.50
35325;DHT22;35135;47.510;19.036;2023-03-19T10:52:55;22.10;41.60
35325;DHT22;35135;47.510;19.036;2023-03-19T10:55:28;22.10;41.60
35325;DHT22;35135;47.510;19.036;2023-03-19T10:58:16;22.10;41.80
35325;DHT22;35135;47.510;19.036;2023-03-19T11:00:46;22.10;41.40
35325;DHT22;35135;47.510;19.036;2023-03-19T11:03:28;22.10;41.40
35325;DHT22;35135;47.510;19.036;2023-03-19T11:08:39;22.10;41.80
35325;DHT22;35135;47.510;19.036;2023-03-19T11:11:05;22.10;41.80
35325;DHT22;35135;47.510;19.036;2023-03-19T11:13:33;22.10;41.80
35325;DHT22;35135;47.510;19.036;2023-03-19T11:15:59;22.10;42.00
35325;DHT22;35135;47.510;19.036;2023-03-19T11:18:34;22.10;41.70
35325;DHT22;35135;47.510;19.036;2023-03-19T11:21:28;22.10;42.00
35325;DHT22;35135;47.510;19.036;2023-03-19T11:23:59;22.10;41.90
35325;DHT22;35135;47.510;19.036;2023-03-19T11:26:26;22.10;42.20
35325;DHT22;35135;47.510;19.036;2023-03-19T11:28:57;22.10;42.30
35325;DHT22;35135;47.510;19.036;2023-03-19T11:31:33;22.10;42.30
35325;DHT22;35135;47.510;19.036;2023-03-19T11:34:30;22.10;42.40
35325;DHT22;35135;47.510;19.036;2023-03-19T11:47:46;22.20;42.70
35325;DHT22;35135;47.510;19.036;2023-03-19T11:50:38;22.20;42.70
35325;DHT22;35135;47.510;19.036;2023-03-19T11:53:27;22.20;42.90
35325;DHT22;35135;47.510;19.036;2023-03-19T12:10:39;22.20;43.20
35325;DHT22;35135;47.510;19.036;2023-03-19T12:16:08;22.20;43.50
35325;DHT22;35135;47.510;19.036;2023-03-19T12:24:52;22.20;43.60
35325;DHT22;35135;47.510;19.036;2023-03-19T12:30:13;22.20;43.60
35325;DHT22;35135;47.510;19.036;2023-03-19T12:35:16;22.20;43.70
35325;DHT22;35135;47.510;19.036;2023-03-19T12:38:04;22.30;43.70
35325;DHT22;35135;47.510;19.036;2023-03-19T12:40:42;22.30;43.70
35325;DHT22;35135;47.510;19.036;2023-03-19T12:46:06;22.30;43.80
35325;DHT22;35135;47.510;19.036;2023-03-19T12:48:50;22.30;43.90
35325;DHT22;35135;47.510;19.036;2023-03-19T12:51:20;22.30;43.90
35325;DHT22;35135;47.510;19.036;2023-03-19T12:57:00;22.30;44.00
35325;DHT22;35135;47.510;19.036;2023-03-19T13:04:39;22.30;44.10
35325;DHT22;35135;47.510;19.036;2023-03-19T13:07:19;22.30;44.00
35325;DHT22;35135;47.510;19.036;2023-03-19T13:09:59;22.30;44.10
35325;DHT22;35135;47.510;19.036;2023-03-19T13:12:28;22.30;44.00
35325;DHT22;35135;47.510;19.036;2023-03-19T13:23:21;22.40;44.00
35325;DHT22;35135;47.510;19.036;2023-03-19T13:25:49;22.40;43.90
35325;DHT22;35135;47.510;19.036;2023-03-19T13:28:27;22.40;43.80
35325;DHT22;35135;47.510;19.036;2023-03-19T13:31:16;22.30;43.80
35325;DHT22;35135;47.510;19.036;2023-03-19T13:33:52;22.40;43.80
35325;DHT22;35135;47.510;19.036;2023-03-19T13:36:27;22.30;43.80
35325;DHT22;35135;47.510;19.036;2023-03-19T13:38:55;22.30;43.80
35325;DHT22;35135;47.510;19.036;2023-03-19T13:46:47;22.30;43.60
35325;DHT22;35135;47.510;19.036;2023-03-19T13:49:34;22.30;43.60
35325;DHT22;35135;47.510;19.036;2023-03-19T13:54:40;22.30;43.40
35325;DHT22;35135;47.510;19.036;2023-03-19T13:57:17;22.30;43.50
35325;DHT22;35135;47.510;19.036;2023-03-19T13:59:47;22.30;43.50
35325;DHT22;35135;47.510;19.036;2023-03-19T14:07:28;22.30;43.30
35325;DHT22;35135;47.510;19.036;2023-03-19T14:12:36;22.30;43.30
35325;DHT22;35135;47.510;19.036;2023-03-19T14:15:20;22.30;43.10
35325;DHT22;35135;47.510;19.036;2023-03-19T14:17:53;22.40;43.10
35325;DHT22;35135;47.510;19.036;2023-03-19T14:20:52;22.30;43.00
35325;DHT22;35135;47.510;19.036;2023-03-19T14:23:24;22.40;43.00
35325;DHT22;35135;47.510;19.036;2023-03-19T14:26:12;22.40;43.00
35325;DHT22;35135;47.510;19.036;2023-03-19T14:34:46;22.40;42.90
35325;DHT22;35135;47.510;19.036;2023-03-19T14:37:23;22.40;42.90
35325;DHT22;35135;47.510;19.036;2023-03-19T14:48:45;22.40;42.90
35325;DHT22;35135;47.510;19.036;2023-03-19T14:56:43;22.40;42.90
35325;DHT22;35135;47.510;19.036;2023-03-19T14:59:12;22.40;42.80
35325;DHT22;35135;47.510;19.036;2023-03-19T15:01:42;22.40;42.80
35325;DHT22;35135;47.510;19.036;2023-03-19T15:04:11;22.40;42.90
35325;DHT22;35135;47.510;19.036;2023-03-19T15:06:42;22.40;42.90
35325;DHT22;35135;47.510;19.036;2023-03-19T15:09:26;22.40;42.90
35325;DHT22;35135;47.510;19.036;2023-03-19T15:12:06;22.40;42.90
35325;DHT22;35135;47.510;19.036;2023-03-19T15:17:29;22.40;41.00
35325;DHT22;35135;47.510;19.036;2023-03-19T15:19:58;22.30;36.60
35325;DHT22;35135;47.510;19.036;2023-03-19T15:22:32;22.10;38.60
35325;DHT22;35135;47.510;19.036;2023-03-19T15:25:10;22.00;37.90
35325;DHT22;35135;47.510;19.036;2023-03-19T15:27:36;21.90;36.80
35325;DHT22;35135;47.510;19.036;2023-03-19T15:30:17;21.80;36.50
35325;DHT22;35135;47.510;19.036;2023-03-19T15:32:43;21.70;35.60
35325;DHT22;35135;47.510;19.036;2023-03-19T15:35:09;21.70;34.10
35325;DHT22;35135;47.510;19.036;2023-03-19T15:37:45;21.50;35.20
35325;DHT22;35135;47.510;19.036;2023-03-19T15:40:16;21.40;34.20
35325;DHT22;35135;47.510;19.036;2023-03-19T15:42:44;21.40;36.10
35325;DHT22;35135;47.510;19.036;2023-03-19T15:45:16;21.50;37.00
35325;DHT22;35135;47.510;19.036;2023-03-19T15:47:53;21.40;34.90
35325;DHT22;35135;47.510;19.036;2023-03-19T15:50:24;21.40;34.90
35325;DHT22;35135;47.510;19.036;2023-03-19T15:52:54;21.40;37.40
35325;DHT22;35135;47.510;19.036;2023-03-19T15:55:23;21.50;37.20
35325;DHT22;35135;47.510;19.036;2023-03-19T15:57:54;21.60;38.90
35325;DHT22;35135;47.510;19.036;2023-03-19T16:00:20;21.60;36.30
35325;DHT22;35135;47.510;19.036;2023-03-19T16:02:49;21.60;37.80
35325;DHT22;35135;47.510;19.036;2023-03-19T16:05:27;21.50;38.00
35325;DHT22;35135;47.510;19.036;2023-03-19T16:07:58;21.60;37.70
35325;DHT22;35135;47.510;19.036;2023-03-19T16:12:54;21.40;38.20
35325;DHT22;35135;47.510;19.036;2023-03-19T16:15:27;21.40;38.20
35325;DHT22;35135;47.510;19.036;2023-03-19T16:17:54;21.40;38.90
35325;DHT22;35135;47.510;19.036;2023-03-19T16:20:20;21.40;38.60
35325;DHT22;35135;47.510;19.036;2023-03-19T16:22:54;21.40;37.70
35325;DHT22;35135;47.510;19.036;2023-03-19T16:25:23;21.40;37.90
35325;DHT22;35135;47.510;19.036;2023-03-19T16:27:52;21.40;36.70
35325;DHT22;35135;47.510;19.036;2023-03-19T16:30:25;21.30;36.70
35325;DHT22;35135;47.510;19.036;2023-03-19T16:33:02;21.30;36.00
35325;DHT22;35135;47.510;19.036;2023-03-19T16:35:31;21.20;37.00
35325;DHT22;35135;47.510;19.036;2023-03-19T16:38:22;21.20;37.40
35325;DHT22;35135;47.510;19.036;2023-03-19T16:40:49;21.20;36.90
35325;DHT22;35135;47.510;19.036;2023-03-19T16:43:34;21.20;38.20
35325;DHT22;35135;47.510;19.036;2023-03-19T16:46:09;21.30;38.70
35325;DHT22;35135;47.510;19.036;2023-03-19T16:48:37;21.30;38.90
35325;DHT22;35135;47.510;19.036;2023-03-19T16:51:04;21.30;39.90
35325;DHT22;35135;47.510;19.036;2023-03-19T16:53:30;21.40;39.70
35325;DHT22;35135;47.510;19.036;2023-03-19T16:55:57;21.40;39.60
35325;DHT22;35135;47.510;19.036;2023-03-19T16:58:35;21.40;39.40
35325;DHT22;35135;47.510;19.036;2023-03-19T17:01:03;21.40;39.20
35325;DHT22;35135;47.510;19.036;2023-03-19T17:03:35;21.40;39.20
35325;DHT22;35135;47.510;19.036;2023-03-19T17:06:01;21.40;39.50
35325;DHT22;35135;47.510;19.036;2023-03-19T17:08:27;21.40;39.80
35325;DHT22;35135;47.510;19.036;2023-03-19T17:10:54;21.40;40.10
35325;DHT22;35135;47.510;19.036;2023-03-19T17:13:25;21.40;40.00
35325;DHT22;35135;47.510;19.036;2023-03-19T17:16:04;21.40;38.60
35325;DHT22;35135;47.510;19.036;2023-03-19T17:18:33;21.40;39.20
35325;DHT22;35135;47.510;19.036;2023-03-19T17:21:08;21.40;39.70
35325;DHT22;35135;47.510;19.036;2023-03-19T17:23:35;21.40;39.50
35325;DHT22;35135;47.510;19.036;2023-03-19T17:26:12;21.40;39.20
35325;DHT22;35135;47.510;19.036;2023-03-19T17:28:39;21.30;39.00
35325;DHT22;35135;47.510;19.036;2023-03-19T17:31:08;21.30;38.50
35325;DHT22;35135;47.510;19.036;2023-03-19T17:33:36;21.30;38.60